createdAt,value
2022-10-13T00:00:45.353Z,92.68
2022-10-13T00:01:45.406Z,92.57
2022-10-13T00:02:45.626Z,92.68
2022-10-13T00:03:45.584Z,92.68
2022-10-13T00:04:45.679Z,92.74
2022-10-13T00:05:45.757Z,92.63
2022-10-13T00:06:45.854Z,92.98
2022-10-13T00:07:45.948Z,93.19
2022-10-13T00:08:46.037Z,93.29
2022-10-13T00:09:46.121Z,93.39
2022-10-13T00:10:46.222Z,93.39
2022-10-13T00:11:46.300Z,93.60
2022-10-13T00:12:46.513Z,93.80
2022-10-13T00:13:46.467Z,93.70
2022-10-13T00:14:46.564Z,93.70
2022-10-13T00:15:46.648Z,93.70
2022-10-13T00:16:46.739Z,93.80
2022-10-13T00:17:46.945Z,93.90
2022-10-13T00:18:46.928Z,94.01
2022-10-13T00:19:46.998Z,94.01
2022-10-13T00:20:47.102Z,94.01
2022-10-13T00:21:47.177Z,94.11
2022-10-13T00:22:47.377Z,94.21
2022-10-13T00:23:47.364Z,94.01
2022-10-13T00:24:47.464Z,93.90
2022-10-13T00:25:47.527Z,93.86
2022-10-13T00:26:47.618Z,93.86
2022-10-13T00:27:47.698Z,93.66
2022-10-13T00:28:52.276Z,93.45
2022-10-13T00:29:47.830Z,93.45
2022-10-13T00:30:47.948Z,93.25
2022-10-13T00:31:48.000Z,93.25
2022-10-13T00:32:48.108Z,93.15
2022-10-13T00:33:48.159Z,93.35
2022-10-13T00:34:48.220Z,93.45
2022-10-13T00:35:48.300Z,93.45
2022-10-13T00:36:48.408Z,93.45
2022-10-13T00:37:48.468Z,93.45
2022-10-13T00:38:48.555Z,93.35
2022-10-13T00:39:48.626Z,93.35
2022-10-13T00:40:48.714Z,93.35
2022-10-13T00:41:48.786Z,93.25
2022-10-13T00:42:48.898Z,93.15
2022-10-13T00:43:48.927Z,93.04
2022-10-13T00:44:49.029Z,93.04
2022-10-13T00:45:49.101Z,93.04
2022-10-13T00:46:49.195Z,93.25
2022-10-13T00:47:49.289Z,93.25
2022-10-13T00:48:49.360Z,93.35
2022-10-13T00:49:49.427Z,93.45
2022-10-13T00:50:49.521Z,93.45
2022-10-13T00:51:49.588Z,93.66
2022-10-13T00:52:49.787Z,93.66
2022-10-13T00:53:49.745Z,93.86
2022-10-13T00:54:49.821Z,93.96
2022-10-13T00:55:49.893Z,93.76
2022-10-13T00:56:49.991Z,93.66
2022-10-13T00:57:50.077Z,93.66
2022-10-13T00:58:50.170Z,93.51
2022-10-13T00:59:50.241Z,93.55
2022-10-13T01:00:50.392Z,93.76
2022-10-13T01:01:50.397Z,93.96
2022-10-13T01:02:50.511Z,93.96
2022-10-13T01:03:50.568Z,94.07
2022-10-13T01:04:50.637Z,94.17
2022-10-13T01:05:50.702Z,94.27
2022-10-13T01:06:50.797Z,94.48
2022-10-13T01:07:50.881Z,94.48
2022-10-13T01:08:50.946Z,94.43
2022-10-13T01:09:51.008Z,94.33
2022-10-13T01:10:51.118Z,94.23
2022-10-13T01:11:51.190Z,94.12
2022-10-13T01:12:51.326Z,94.02
2022-10-13T01:13:51.363Z,93.92
2022-10-13T01:14:51.440Z,93.71
2022-10-13T01:15:51.503Z,93.82
2022-10-13T01:16:51.594Z,93.82
2022-10-13T01:17:51.674Z,93.82
2022-10-13T01:18:51.755Z,93.62
2022-10-13T01:19:51.815Z,93.62
2022-10-13T01:20:51.895Z,93.71
2022-10-13T01:21:51.973Z,93.51
2022-10-13T01:22:52.099Z,93.51
2022-10-13T01:23:52.134Z,93.20
2022-10-13T01:24:52.212Z,93.20
2022-10-13T01:25:52.279Z,93.00
2022-10-13T01:26:52.381Z,92.90
2022-10-13T01:27:52.460Z,92.90
2022-10-13T01:28:52.547Z,92.79
2022-10-13T01:29:52.614Z,92.69
2022-10-13T01:30:52.684Z,92.69
2022-10-13T01:31:52.750Z,92.69
2022-10-13T01:32:52.851Z,92.69
2022-10-13T01:33:52.918Z,92.69
2022-10-13T01:34:52.986Z,92.59
2022-10-13T01:35:53.069Z,92.59
2022-10-13T01:36:53.156Z,92.59
2022-10-13T01:37:53.245Z,92.49
2022-10-13T01:38:53.305Z,92.44
2022-10-13T01:39:53.397Z,92.34
2022-10-13T01:40:53.465Z,92.24
2022-10-13T01:41:53.546Z,92.28
2022-10-13T01:42:53.640Z,92.38
2022-10-13T01:43:53.703Z,92.49
2022-10-13T01:44:53.786Z,92.69
2022-10-13T01:45:53.893Z,92.79
2022-10-13T01:46:54.037Z,92.90
2022-10-13T01:47:54.087Z,93.00
2022-10-13T01:48:54.141Z,93.10
2022-10-13T01:49:54.227Z,93.10
2022-10-13T01:50:54.308Z,93.10
2022-10-13T01:51:54.398Z,93.20
2022-10-13T01:52:54.485Z,93.30
2022-10-13T01:53:54.556Z,93.30
2022-10-13T01:54:54.633Z,93.30
2022-10-13T01:55:54.741Z,93.30
2022-10-13T01:56:54.820Z,93.20
2022-10-13T01:57:54.917Z,93.10
2022-10-13T01:58:54.987Z,93.10
2022-10-13T01:59:55.076Z,93.20
2022-10-13T02:00:55.184Z,93.20
2022-10-13T02:01:55.215Z,93.20
2022-10-13T02:02:55.301Z,93.10
2022-10-13T02:03:55.386Z,93.00
2022-10-13T02:04:55.457Z,93.10
2022-10-13T02:05:55.537Z,93.10
2022-10-13T02:06:55.611Z,93.10
2022-10-13T02:07:55.741Z,93.10
2022-10-13T02:08:55.771Z,93.30
2022-10-13T02:09:55.876Z,93.30
2022-10-13T02:10:55.941Z,93.30
2022-10-13T02:11:56.038Z,93.62
2022-10-13T02:12:56.228Z,93.51
2022-10-13T02:13:56.213Z,93.71
2022-10-13T02:14:56.289Z,93.71
2022-10-13T02:15:56.400Z,93.71
2022-10-13T02:16:56.477Z,93.71
2022-10-13T02:17:56.571Z,93.71
2022-10-13T02:18:56.620Z,93.82
2022-10-13T02:19:56.695Z,93.82
2022-10-13T02:20:56.765Z,93.82
2022-10-13T02:21:56.870Z,93.82
2022-10-13T02:22:56.958Z,93.96
2022-10-13T02:23:57.028Z,93.92
2022-10-13T02:24:57.105Z,94.02
2022-10-13T02:25:57.182Z,94.07
2022-10-13T02:26:57.260Z,94.12
2022-10-13T02:27:59.129Z,94.02
2022-10-13T02:28:57.406Z,94.02
2022-10-13T02:29:57.508Z,93.92
2022-10-13T02:30:57.589Z,93.92
2022-10-13T02:31:57.661Z,93.82
2022-10-13T02:32:57.739Z,93.82
2022-10-13T02:33:57.844Z,93.57
2022-10-13T02:34:57.869Z,93.62
2022-10-13T02:35:57.980Z,93.62
2022-10-13T02:36:58.056Z,93.92
2022-10-13T02:37:58.159Z,94.02
2022-10-13T02:38:58.251Z,94.02
2022-10-13T02:39:58.326Z,94.12
2022-10-13T02:40:58.385Z,94.43
2022-10-13T02:41:58.463Z,94.43
2022-10-13T02:42:58.528Z,94.43
2022-10-13T02:43:58.620Z,94.33
2022-10-13T02:44:58.688Z,94.43
2022-10-13T02:45:58.801Z,94.39
2022-10-13T02:46:58.886Z,94.39
2022-10-13T02:47:58.987Z,94.29
2022-10-13T02:48:59.054Z,94.08
2022-10-13T02:49:59.131Z,93.98
2022-10-13T02:50:59.215Z,93.88
2022-10-13T02:51:59.327Z,93.77
2022-10-13T02:52:59.393Z,93.63
2022-10-13T02:53:59.508Z,93.43
2022-10-13T02:54:59.553Z,93.22
2022-10-13T02:55:59.656Z,93.22
2022-10-13T02:56:59.716Z,93.12
2022-10-13T02:57:59.817Z,93.01
2022-10-13T02:58:59.909Z,92.91
2022-10-13T02:59:59.979Z,92.81
2022-10-13T03:01:00.080Z,92.60
2022-10-13T03:02:00.105Z,92.50
2022-10-13T03:03:00.168Z,92.40
2022-10-13T03:04:00.262Z,92.40
2022-10-13T03:05:00.322Z,92.19
2022-10-13T03:06:00.408Z,92.10
2022-10-13T03:07:00.490Z,92.19
2022-10-13T03:08:00.573Z,92.10
2022-10-13T03:09:00.654Z,92.10
2022-10-13T03:10:00.719Z,92.10
2022-10-13T03:11:00.803Z,91.99
2022-10-13T03:12:00.898Z,92.10
2022-10-13T03:13:00.978Z,91.99
2022-10-13T03:14:01.110Z,91.99
2022-10-13T03:15:01.153Z,91.99
2022-10-13T03:16:01.249Z,91.99
2022-10-13T03:17:01.321Z,92.24
2022-10-13T03:18:01.399Z,92.75
2022-10-13T03:19:01.501Z,93.10
2022-10-13T03:20:01.585Z,93.51
2022-10-13T03:21:01.632Z,93.82
2022-10-13T03:22:01.717Z,94.02
2022-10-13T03:23:01.800Z,94.33
2022-10-13T03:24:01.926Z,94.43
2022-10-13T03:25:01.972Z,94.64
2022-10-13T03:26:02.053Z,94.64
2022-10-13T03:27:02.140Z,94.74
2022-10-13T03:28:02.216Z,94.64
2022-10-13T03:29:02.316Z,94.64
2022-10-13T03:30:02.395Z,94.54
2022-10-13T03:31:02.490Z,94.39
2022-10-13T03:32:02.550Z,94.29
2022-10-13T03:33:02.622Z,94.18
2022-10-13T03:34:02.758Z,93.98
2022-10-13T03:35:02.786Z,93.88
2022-10-13T03:36:02.896Z,93.77
2022-10-13T03:37:02.966Z,93.57
2022-10-13T03:38:03.078Z,93.47
2022-10-13T03:39:03.172Z,93.26
2022-10-13T03:40:03.227Z,93.06
2022-10-13T03:41:03.284Z,92.96
2022-10-13T03:42:03.373Z,92.85
2022-10-13T03:43:03.445Z,92.85
2022-10-13T03:44:03.544Z,92.65
2022-10-13T03:45:03.586Z,92.75
2022-10-13T03:46:03.692Z,93.20
2022-10-13T03:47:03.769Z,93.62
2022-10-13T03:48:03.846Z,93.92
2022-10-13T03:49:03.935Z,94.12
2022-10-13T03:50:03.993Z,94.23
2022-10-13T03:51:04.073Z,94.23
2022-10-13T03:52:04.181Z,94.23
2022-10-13T03:53:04.269Z,94.33
2022-10-13T03:54:04.366Z,94.33
2022-10-13T03:55:04.408Z,94.33
2022-10-13T03:56:04.487Z,94.23
2022-10-13T03:57:04.560Z,94.33
2022-10-13T03:58:04.640Z,94.23
2022-10-13T03:59:04.718Z,94.12
2022-10-13T04:00:04.804Z,94.12
2022-10-13T04:01:04.895Z,94.02
2022-10-13T04:02:05.040Z,93.92
2022-10-13T04:03:05.075Z,93.71
2022-10-13T04:04:05.185Z,93.57
2022-10-13T04:05:05.242Z,93.37
2022-10-13T04:06:05.340Z,93.16
2022-10-13T04:07:05.391Z,92.96
2022-10-13T04:08:05.478Z,92.75
2022-10-13T04:09:05.578Z,92.44
2022-10-13T04:10:10.218Z,92.44
2022-10-13T04:11:05.725Z,92.24
2022-10-13T04:12:05.807Z,92.14
2022-10-13T04:13:05.864Z,92.14
2022-10-13T04:14:06.269Z,92.14
2022-10-13T04:15:06.007Z,92.03
2022-10-13T04:16:06.082Z,91.83
2022-10-13T04:17:06.136Z,91.83
2022-10-13T04:18:06.240Z,91.83
2022-10-13T04:19:06.340Z,91.83
2022-10-13T04:20:06.370Z,91.93
2022-10-13T04:21:06.457Z,91.93
2022-10-13T04:22:06.533Z,91.93
2022-10-13T04:23:06.582Z,91.83
2022-10-13T04:24:06.704Z,91.78
2022-10-13T04:25:06.755Z,91.73
2022-10-13T04:26:06.840Z,91.69
2022-10-13T04:27:06.893Z,91.73
2022-10-13T04:28:06.996Z,91.69
2022-10-13T04:29:07.074Z,91.69
2022-10-13T04:30:07.156Z,91.69
2022-10-13T04:31:07.222Z,91.69
2022-10-13T04:32:07.313Z,91.78
2022-10-13T04:33:07.383Z,91.78
2022-10-13T04:34:07.479Z,91.69
2022-10-13T04:35:07.541Z,91.69
2022-10-13T04:36:07.634Z,91.69
2022-10-13T04:37:07.683Z,91.69
2022-10-13T04:38:07.769Z,91.58
2022-10-13T04:39:07.857Z,91.48
2022-10-13T04:40:07.936Z,91.38
2022-10-13T04:41:07.999Z,91.38
2022-10-13T04:42:08.081Z,91.27
2022-10-13T04:43:08.148Z,91.27
2022-10-13T04:44:08.254Z,91.17
2022-10-13T04:45:08.297Z,91.17
2022-10-13T04:46:08.386Z,91.17
2022-10-13T04:47:08.464Z,90.97
2022-10-13T04:48:08.547Z,90.97
2022-10-13T04:49:08.633Z,90.97
2022-10-13T04:50:08.708Z,90.97
2022-10-13T04:51:08.793Z,91.17
2022-10-13T04:52:08.869Z,91.27
2022-10-13T04:53:08.961Z,91.38
2022-10-13T04:54:09.080Z,91.48
2022-10-13T04:55:09.139Z,91.58
2022-10-13T04:56:09.208Z,91.58
2022-10-13T04:57:09.294Z,91.58
2022-10-13T04:58:09.383Z,91.48
2022-10-13T04:59:09.495Z,91.48
2022-10-13T05:00:09.557Z,91.48
2022-10-13T05:01:09.674Z,91.69
2022-10-13T05:02:09.718Z,91.69
2022-10-13T05:03:09.812Z,91.69
2022-10-13T05:04:09.939Z,91.78
2022-10-13T05:05:09.993Z,91.89
2022-10-13T05:06:10.103Z,91.89
2022-10-13T05:07:18.066Z,91.99
2022-10-13T05:08:10.274Z,91.99
2022-10-13T05:09:10.368Z,91.89
2022-10-13T05:10:10.436Z,92.19
2022-10-13T05:11:10.513Z,92.19
2022-10-13T05:12:10.586Z,92.19
2022-10-13T05:13:10.670Z,92.19
2022-10-13T05:14:10.767Z,92.19
2022-10-13T05:15:10.819Z,92.30
2022-10-13T05:16:10.892Z,92.30
2022-10-13T05:17:10.965Z,92.40
2022-10-13T05:18:11.072Z,92.50
2022-10-13T05:19:11.185Z,92.50
2022-10-13T05:20:11.242Z,92.50
2022-10-13T05:21:11.316Z,92.60
2022-10-13T05:22:11.420Z,92.40
2022-10-13T05:23:11.509Z,92.30
2022-10-13T05:24:11.626Z,92.30
2022-10-13T05:25:11.668Z,92.40
2022-10-13T05:26:11.747Z,92.40
2022-10-13T05:27:11.822Z,92.40
2022-10-13T05:28:11.971Z,92.30
2022-10-13T05:29:12.032Z,92.30
2022-10-13T05:30:12.107Z,92.30
2022-10-13T05:31:12.188Z,92.19
2022-10-13T05:32:12.265Z,92.30
2022-10-13T05:33:12.318Z,92.19
2022-10-13T05:34:12.495Z,92.15
2022-10-13T05:35:12.503Z,92.10
2022-10-13T05:36:12.578Z,92.10
2022-10-13T05:37:12.638Z,91.95
2022-10-13T05:38:12.732Z,91.95
2022-10-13T05:39:12.815Z,91.99
2022-10-13T05:40:12.900Z,92.10
2022-10-13T05:41:12.966Z,92.10
2022-10-13T05:42:13.061Z,92.10
2022-10-13T05:43:13.121Z,92.19
2022-10-13T05:44:13.245Z,92.40
2022-10-13T05:45:13.297Z,92.40
2022-10-13T05:46:13.383Z,92.60
2022-10-13T05:47:13.431Z,92.60
2022-10-13T05:48:13.505Z,92.60
2022-10-13T05:49:13.583Z,92.60
2022-10-13T05:50:13.669Z,92.60
2022-10-13T05:51:13.726Z,92.50
2022-10-13T05:52:13.821Z,92.40
2022-10-13T05:53:13.880Z,92.40
2022-10-13T05:54:14.008Z,92.50
2022-10-13T05:55:14.039Z,92.50
2022-10-13T05:56:14.091Z,92.60
2022-10-13T05:57:14.168Z,92.60
2022-10-13T05:58:14.225Z,92.60
2022-10-13T05:59:14.309Z,92.60
2022-10-13T06:00:14.368Z,92.50
2022-10-13T06:01:14.455Z,92.50
2022-10-13T06:02:14.540Z,92.30
2022-10-13T06:03:14.634Z,92.30
2022-10-13T06:04:14.714Z,92.30
2022-10-13T06:05:14.804Z,92.30
2022-10-13T06:06:14.860Z,92.19
2022-10-13T06:07:14.956Z,92.40
2022-10-13T06:08:15.014Z,92.40
2022-10-13T06:09:15.123Z,92.40
2022-10-13T06:10:15.184Z,92.50
2022-10-13T06:11:15.482Z,92.60
2022-10-13T06:12:15.336Z,92.60
2022-10-13T06:13:15.445Z,92.60
2022-10-13T06:14:15.533Z,92.40
2022-10-13T06:15:15.615Z,92.30
2022-10-13T06:16:15.706Z,92.25
2022-10-13T06:17:15.798Z,92.36
2022-10-13T06:18:15.859Z,92.56
2022-10-13T06:19:15.965Z,92.66
2022-10-13T06:20:16.033Z,92.56
2022-10-13T06:21:16.135Z,92.56
2022-10-13T06:22:16.213Z,92.56
2022-10-13T06:23:16.287Z,92.56
2022-10-13T06:24:16.406Z,92.46
2022-10-13T06:25:16.476Z,92.36
2022-10-13T06:26:16.520Z,92.36
2022-10-13T06:27:16.594Z,92.25
2022-10-13T06:28:16.662Z,92.25
2022-10-13T06:29:16.762Z,92.15
2022-10-13T06:30:16.808Z,92.25
2022-10-13T06:31:16.889Z,92.25
2022-10-13T06:32:17.187Z,92.15
2022-10-13T06:33:17.056Z,92.36
2022-10-13T06:34:17.237Z,92.36
2022-10-13T06:35:17.205Z,92.46
2022-10-13T06:36:17.298Z,92.56
2022-10-13T06:37:17.365Z,92.56
2022-10-13T06:38:17.450Z,92.77
2022-10-13T06:39:17.559Z,92.66
2022-10-13T06:40:17.605Z,92.56
2022-10-13T06:41:17.675Z,92.46
2022-10-13T06:42:18.056Z,92.46
2022-10-13T06:43:17.829Z,92.32
2022-10-13T06:44:17.911Z,92.21
2022-10-13T06:45:17.970Z,92.11
2022-10-13T06:46:18.048Z,92.11
2022-10-13T06:47:18.145Z,92.01
2022-10-13T06:48:18.217Z,92.01
2022-10-13T06:49:18.310Z,91.96
2022-10-13T06:50:18.348Z,91.96
2022-10-13T06:51:18.446Z,91.86
2022-10-13T06:52:18.833Z,91.76
2022-10-13T06:53:18.625Z,91.76
2022-10-13T06:54:18.693Z,91.56
2022-10-13T06:55:18.776Z,91.46
2022-10-13T06:56:18.840Z,91.31
2022-10-13T06:57:18.921Z,91.20
2022-10-13T06:58:18.979Z,91.20
2022-10-13T06:59:19.090Z,91.11
2022-10-13T07:00:19.154Z,91.00
2022-10-13T07:01:19.213Z,90.90
2022-10-13T07:02:19.577Z,91.00
2022-10-13T07:03:19.394Z,91.00
2022-10-13T07:04:19.475Z,91.20
2022-10-13T07:05:19.561Z,91.20
2022-10-13T07:06:19.619Z,91.31
2022-10-13T07:07:19.710Z,91.20
2022-10-13T07:08:19.770Z,91.11
2022-10-13T07:09:19.890Z,91.00
2022-10-13T07:10:19.953Z,91.00
2022-10-13T07:11:20.053Z,91.11
2022-10-13T07:12:20.523Z,91.20
2022-10-13T07:14:20.294Z,91.11
2022-10-13T07:15:20.358Z,91.00
2022-10-13T07:16:20.425Z,91.11
2022-10-13T07:17:20.909Z,90.86
2022-10-13T07:18:20.603Z,90.86
2022-10-13T07:19:20.697Z,90.86
2022-10-13T07:20:20.742Z,90.75
2022-10-13T07:21:20.826Z,90.66
2022-10-13T07:22:20.877Z,90.66
2022-10-13T07:23:20.961Z,90.66
2022-10-13T07:24:21.041Z,90.55
2022-10-13T07:25:21.125Z,90.55
2022-10-13T07:26:21.180Z,90.55
2022-10-13T07:27:21.741Z,90.55
2022-10-13T07:28:21.383Z,90.66
2022-10-13T07:29:21.484Z,90.66
2022-10-13T07:30:21.615Z,90.55
2022-10-13T07:31:21.607Z,90.61
2022-10-13T07:32:21.657Z,90.71
2022-10-13T07:33:21.748Z,90.71
2022-10-13T07:34:21.819Z,90.61
2022-10-13T07:35:24.754Z,90.41
2022-10-13T07:36:21.954Z,90.36
2022-10-13T07:37:22.377Z,90.26
2022-10-13T07:38:22.106Z,90.26
2022-10-13T07:39:22.232Z,90.26
2022-10-13T07:40:22.279Z,90.26
2022-10-13T07:41:22.388Z,90.22
2022-10-13T07:42:22.477Z,90.12
2022-10-13T07:43:22.549Z,89.92
2022-10-13T07:44:22.628Z,89.92
2022-10-13T07:45:22.691Z,89.81
2022-10-13T07:46:22.767Z,89.81
2022-10-13T07:47:23.087Z,89.71
2022-10-13T07:49:23.016Z,90.01
2022-10-13T07:50:23.075Z,89.92
2022-10-13T07:51:23.143Z,90.32
2022-10-13T07:52:23.385Z,90.12
2022-10-13T07:53:23.320Z,90.12
2022-10-13T07:54:26.567Z,89.87
2022-10-13T07:55:23.459Z,89.77
2022-10-13T07:56:23.517Z,89.67
2022-10-13T07:57:23.596Z,89.57
2022-10-13T07:58:23.667Z,89.36
2022-10-13T07:59:23.755Z,89.12
2022-10-13T08:00:23.805Z,89.01
2022-10-13T08:01:23.905Z,88.81
2022-10-13T08:02:23.937Z,88.71
2022-10-13T08:03:24.016Z,88.40
2022-10-13T08:04:24.095Z,88.36
2022-10-13T08:05:24.142Z,88.26
2022-10-13T08:06:24.224Z,88.16
2022-10-13T08:07:24.286Z,88.26
2022-10-13T08:08:24.357Z,88.26
2022-10-13T08:09:24.625Z,88.26
2022-10-13T08:10:24.505Z,88.26
2022-10-13T08:11:24.585Z,87.81
2022-10-13T08:12:24.663Z,87.41
2022-10-13T08:13:24.748Z,87.61
2022-10-13T08:14:24.929Z,87.67
2022-10-13T08:15:24.912Z,87.37
2022-10-13T08:16:25.017Z,86.92
2022-10-13T08:17:25.103Z,86.51
2022-10-13T08:18:25.169Z,85.96
2022-10-13T08:19:25.252Z,85.35
2022-10-13T08:20:28.872Z,84.70
2022-10-13T08:21:53.254Z,84.77
2022-10-13T08:22:28.255Z,84.72
2022-10-13T08:23:25.539Z,84.63
2022-10-13T08:24:25.649Z,84.52
2022-10-13T08:25:25.700Z,84.08
2022-10-13T08:26:25.774Z,83.23
2022-10-13T08:27:37.063Z,82.21
2022-10-13T08:28:26.052Z,82.31
2022-10-13T08:29:26.098Z,81.60
2022-10-13T08:30:26.341Z,81.20
2022-10-13T08:31:26.389Z,81.20
2022-10-13T08:32:26.291Z,81.20
2022-10-13T08:33:26.365Z,81.26
2022-10-13T08:34:26.479Z,81.37
2022-10-13T08:35:27.816Z,81.81
2022-10-13T08:36:26.656Z,81.60
2022-10-13T08:37:26.725Z,82.31
2022-10-13T08:38:26.820Z,82.42
2022-10-13T08:39:26.895Z,82.31
2022-10-13T08:40:27.007Z,82.42
2022-10-13T08:41:27.070Z,81.71
2022-10-13T08:42:27.149Z,81.91
2022-10-13T08:43:27.204Z,81.77
2022-10-13T08:45:42.817Z,81.37
2022-10-13T08:46:27.461Z,81.46
2022-10-13T08:47:27.547Z,81.26
2022-10-13T08:48:27.619Z,80.96
2022-10-13T08:49:27.701Z,81.06
2022-10-13T08:50:27.759Z,81.02
2022-10-13T08:51:27.832Z,81.02
2022-10-13T08:52:27.922Z,81.02
2022-10-13T08:53:27.985Z,81.23
2022-10-13T08:54:28.088Z,81.12
2022-10-13T08:55:28.127Z,80.47
2022-10-13T08:56:28.218Z,80.38
2022-10-13T08:57:28.272Z,80.38
2022-10-13T08:58:28.343Z,79.13
2022-10-13T08:59:28.555Z,78.78
2022-10-13T09:00:28.484Z,78.62
2022-10-13T09:01:28.570Z,78.82
2022-10-13T09:02:28.623Z,78.17
2022-10-13T09:03:28.678Z,77.67
2022-10-13T09:04:28.784Z,77.30
2022-10-13T09:05:28.839Z,77.81
2022-10-13T09:06:28.924Z,77.91
2022-10-13T09:07:28.966Z,78.21
2022-10-13T09:08:29.056Z,78.52
2022-10-13T09:09:29.147Z,78.31
2022-10-13T09:10:29.233Z,78.82
2022-10-13T09:11:29.304Z,78.72
2022-10-13T09:12:29.378Z,78.82
2022-10-13T09:13:29.431Z,78.31
2022-10-13T09:14:29.529Z,77.81
2022-10-13T09:15:29.578Z,78.01
2022-10-13T09:16:29.673Z,78.62
2022-10-13T09:17:29.740Z,78.72
2022-10-13T09:18:29.847Z,78.52
2022-10-13T09:19:29.953Z,78.96
2022-10-13T09:20:30.021Z,78.86
2022-10-13T09:21:30.071Z,78.92
2022-10-13T09:22:30.160Z,78.72
2022-10-13T09:23:30.212Z,78.92
2022-10-13T09:24:30.325Z,79.02
2022-10-13T09:25:30.371Z,78.72
2022-10-13T09:26:30.472Z,78.82
2022-10-13T09:27:30.554Z,78.58
2022-10-13T09:28:30.641Z,78.58
2022-10-13T09:29:30.708Z,78.88
2022-10-13T09:30:30.795Z,79.29
2022-10-13T09:31:30.872Z,79.08
2022-10-13T09:32:30.975Z,78.78
2022-10-13T09:33:31.055Z,78.48
2022-10-13T09:34:31.151Z,78.55
2022-10-13T09:35:31.202Z,78.44
2022-10-13T09:36:31.393Z,77.43
2022-10-13T09:37:31.371Z,76.93
2022-10-13T09:38:31.460Z,76.52
2022-10-13T09:39:31.533Z,76.32
2022-10-13T09:40:31.649Z,76.42
2022-10-13T09:41:31.681Z,76.62
2022-10-13T09:42:31.771Z,76.22
2022-10-13T09:43:31.850Z,75.88
2022-10-13T09:44:31.983Z,75.27
2022-10-13T09:45:32.029Z,74.97
2022-10-13T09:46:32.146Z,74.57
2022-10-13T09:47:32.214Z,74.37
2022-10-13T09:48:32.282Z,74.16
2022-10-13T09:49:32.374Z,74.37
2022-10-13T09:50:32.468Z,74.46
2022-10-13T09:51:32.506Z,74.57
2022-10-13T09:52:32.609Z,74.37
2022-10-13T09:53:32.699Z,73.93
2022-10-13T09:54:32.800Z,73.93
2022-10-13T09:55:33.123Z,73.72
2022-10-13T09:56:32.964Z,73.38
2022-10-13T09:57:33.041Z,73.38
2022-10-13T09:58:33.149Z,73.05
2022-10-13T09:59:33.207Z,72.75
2022-10-13T10:00:33.273Z,72.85
2022-10-13T10:01:33.360Z,72.75
2022-10-13T10:02:33.923Z,72.41
2022-10-13T10:03:33.558Z,71.91
2022-10-13T10:04:33.623Z,71.60
2022-10-13T10:05:33.680Z,71.60
2022-10-13T10:06:33.751Z,71.60
2022-10-13T10:07:33.833Z,71.50
2022-10-13T10:08:50.964Z,71.70
2022-10-13T10:09:34.009Z,71.50
2022-10-13T10:10:34.065Z,71.60
2022-10-13T10:11:34.155Z,71.50
2022-10-13T10:12:34.204Z,71.33
2022-10-13T10:13:34.311Z,71.44
2022-10-13T10:14:34.412Z,71.33
2022-10-13T10:15:34.489Z,70.93
2022-10-13T10:16:34.577Z,70.83
2022-10-13T10:17:34.677Z,70.53
2022-10-13T10:18:34.754Z,70.62
2022-10-13T10:19:34.869Z,70.53
2022-10-13T10:20:34.928Z,70.42
2022-10-13T10:21:35.007Z,70.12
2022-10-13T10:22:35.062Z,70.42
2022-10-13T10:23:35.155Z,70.29
2022-10-13T10:24:35.253Z,70.49
2022-10-13T10:25:35.332Z,70.49
2022-10-13T10:26:35.405Z,70.29
2022-10-13T10:27:38.841Z,69.89
2022-10-13T10:28:35.585Z,69.68
2022-10-13T10:29:35.680Z,69.59
2022-10-13T10:30:35.930Z,69.59
2022-10-13T10:31:35.818Z,69.38
2022-10-13T10:32:35.887Z,69.28
2022-10-13T10:33:35.980Z,69.28
2022-10-13T10:34:36.063Z,69.05
2022-10-13T10:35:36.138Z,69.15
2022-10-13T10:36:36.206Z,69.35
2022-10-13T10:37:36.291Z,69.15
2022-10-13T10:38:36.374Z,68.91
2022-10-13T10:39:36.487Z,68.41
2022-10-13T10:40:36.523Z,68.51
2022-10-13T10:41:36.612Z,68.21
2022-10-13T10:42:36.677Z,68.21
2022-10-13T10:43:36.792Z,67.80
2022-10-13T10:44:36.923Z,67.80
2022-10-13T10:45:36.965Z,67.77
2022-10-13T10:46:37.030Z,67.57
2022-10-13T10:47:37.111Z,67.37
2022-10-13T10:48:37.166Z,67.03
2022-10-13T10:49:37.362Z,66.23
2022-10-13T10:50:37.330Z,66.03
2022-10-13T10:51:37.403Z,66.13
2022-10-13T10:52:37.457Z,66.03
2022-10-13T10:53:37.550Z,66.33
2022-10-13T10:54:37.650Z,66.13
2022-10-13T10:55:37.706Z,66.33
2022-10-13T10:56:37.792Z,66.13
2022-10-13T10:57:37.867Z,66.27
2022-10-13T10:58:37.947Z,66.36
2022-10-13T10:59:38.060Z,66.27
2022-10-13T11:00:38.110Z,66.36
2022-10-13T11:01:38.256Z,66.36
2022-10-13T11:02:38.276Z,66.47
2022-10-13T11:03:38.354Z,66.47
2022-10-13T11:04:38.450Z,66.56
2022-10-13T11:05:38.509Z,66.67
2022-10-13T11:06:38.601Z,66.50
2022-10-13T11:07:38.676Z,66.60
2022-10-13T11:08:38.728Z,66.70
2022-10-13T11:09:38.867Z,67.10
2022-10-13T11:10:38.879Z,67.03
2022-10-13T11:11:38.957Z,67.23
2022-10-13T11:12:39.008Z,67.13
2022-10-13T11:13:39.105Z,67.23
2022-10-13T11:14:39.172Z,67.33
2022-10-13T11:15:39.255Z,67.23
2022-10-13T11:16:39.306Z,67.33
2022-10-13T11:17:39.387Z,67.03
2022-10-13T11:18:39.441Z,67.13
2022-10-13T11:19:39.559Z,67.23
2022-10-13T11:20:39.610Z,67.33
2022-10-13T11:21:39.688Z,67.36
2022-10-13T11:22:39.737Z,67.54
2022-10-13T11:23:39.815Z,67.47
2022-10-13T11:24:39.923Z,67.54
2022-10-13T11:25:39.998Z,67.33
2022-10-13T11:26:40.092Z,67.13
2022-10-13T11:27:40.171Z,66.73
2022-10-13T11:28:40.283Z,66.30
2022-10-13T11:29:40.646Z,66.39
2022-10-13T11:30:40.397Z,66.02
2022-10-13T11:31:40.472Z,66.19
2022-10-13T11:32:40.552Z,66.50
2022-10-13T11:33:40.669Z,66.39
2022-10-13T11:34:40.796Z,66.70
2022-10-13T11:35:40.845Z,66.39
2022-10-13T11:36:40.931Z,66.39
2022-10-13T11:37:41.025Z,66.09
2022-10-13T11:38:41.109Z,66.13
2022-10-13T11:39:41.246Z,66.02
2022-10-13T11:40:41.269Z,66.39
2022-10-13T11:41:41.350Z,66.60
2022-10-13T11:42:41.442Z,66.50
2022-10-13T11:43:41.520Z,66.70
2022-10-13T11:44:41.611Z,66.60
2022-10-13T11:45:41.692Z,66.50
2022-10-13T11:46:41.743Z,66.50
2022-10-13T11:47:41.827Z,66.70
2022-10-13T11:48:41.872Z,67.00
2022-10-13T11:49:41.982Z,67.20
2022-10-13T11:50:42.028Z,67.43
2022-10-13T11:51:42.128Z,67.74
2022-10-13T11:52:42.169Z,68.24
2022-10-13T11:53:42.249Z,68.54
2022-10-13T11:54:42.341Z,68.95
2022-10-13T11:55:42.392Z,68.95
2022-10-13T11:56:44.948Z,69.85
2022-10-13T11:57:42.554Z,69.85
2022-10-13T11:58:42.638Z,70.32
2022-10-13T11:59:42.739Z,70.73
2022-10-13T12:00:42.771Z,71.73
2022-10-13T12:01:42.866Z,70.73
2022-10-13T12:02:43.019Z,71.03
2022-10-13T12:03:43.048Z,71.53
2022-10-13T12:04:46.678Z,71.26
2022-10-13T12:05:43.214Z,72.17
2022-10-13T12:06:43.294Z,72.98
2022-10-13T12:07:43.389Z,73.14
2022-10-13T12:08:43.457Z,71.67
2022-10-13T12:09:43.616Z,72.38
2022-10-13T12:10:43.620Z,72.07
2022-10-13T12:11:43.698Z,72.17
2022-10-13T12:12:43.752Z,72.71
2022-10-13T12:13:43.844Z,72.11
2022-10-13T12:14:43.909Z,72.11
2022-10-13T12:15:43.988Z,71.91
2022-10-13T12:16:44.127Z,72.41
2022-10-13T12:17:44.148Z,72.51
2022-10-13T12:18:44.228Z,72.71
2022-10-13T12:19:44.351Z,73.42
2022-10-13T12:20:44.388Z,72.91
2022-10-13T12:21:44.488Z,73.42
2022-10-13T12:22:44.541Z,73.32
2022-10-13T12:23:44.635Z,72.81
2022-10-13T12:24:44.696Z,73.25
2022-10-13T12:25:44.756Z,73.25
2022-10-13T12:26:44.823Z,73.35
2022-10-13T12:27:44.902Z,73.55
2022-10-13T12:28:45.028Z,73.85
2022-10-13T12:29:45.086Z,73.75
2022-10-13T12:30:45.139Z,73.25
2022-10-13T12:31:45.217Z,74.26
2022-10-13T12:32:45.309Z,74.26
2022-10-13T12:33:45.388Z,74.96
2022-10-13T12:34:45.525Z,74.87
2022-10-13T12:35:45.568Z,75.31
2022-10-13T12:36:45.655Z,75.51
2022-10-13T12:37:45.696Z,75.91
2022-10-13T12:38:45.748Z,75.60
2022-10-13T12:39:45.859Z,76.35
2022-10-13T12:40:45.950Z,76.15
2022-10-13T12:41:45.989Z,76.15
2022-10-13T12:42:46.082Z,77.15
2022-10-13T12:43:46.166Z,77.86
2022-10-13T12:44:46.235Z,76.75
2022-10-13T12:45:46.307Z,77.60
2022-10-13T12:46:46.401Z,78.20
2022-10-13T12:47:46.481Z,77.80
2022-10-13T12:48:46.555Z,78.30
2022-10-13T12:49:46.655Z,78.81
2022-10-13T12:50:46.707Z,78.91
2022-10-13T12:51:46.789Z,78.91
2022-10-13T12:52:46.864Z,78.91
2022-10-13T12:53:46.947Z,79.11
2022-10-13T12:54:47.035Z,79.21
2022-10-13T12:55:47.086Z,79.21
2022-10-13T12:56:47.223Z,79.52